TIPO2: N. Fork Red River nr Tipton, OK

Data processed at Sun Sep 23 2018 22:02


All information presented herein is the property of the government of the United States of America and may be revised or deleted at any time without prior notice.
Dissemination of this information without the expressed written consent of the Public Affairs Office, Tulsa District U.S. Army Corps of Engineers is strictly prohibited.
These data are gathered electronically and, as presented, have not undergone any form of quality control. These data are not guaranteed to be valid or correct.
Go to home page.
Go to station list.
Go to home page.

Upstream stations:

Downstream station:
Previous Day
Next Day
Current Day
    
SHEF ID:       TIPO2     North Fork Red River near Tipton
STATION TYPE:  

                STAGE  RIV-FLOW   VOLTAGE  BAT-LOAD
                   ft       cfs      volt      volt
              Ccp-Rev   Ccp-Rev   Ccp-Rev   Ccp-Rev
(US/Central)
09/23 00:00      8.83      1259     12.65     12.49
09/23 01:00      8.75      1211     12.65     12.49
09/23 02:00      8.65      1153     12.65     12.49
09/23 03:00      8.53      1085     12.65     12.41
09/23 04:00      8.41      1020     12.57     12.41
09/23 05:00      8.28       951     12.57     12.41
09/23 06:00      8.14       880     12.57     12.41
09/23 07:00      8.01       817     12.57     12.41
09/23 08:00      7.87       752     12.57     12.41
09/23 09:00      7.74       694     12.65     12.41
09/23 10:00      7.62       642     12.81     12.65
09/23 11:00      7.51       597     13.05     12.89
09/23 12:00      7.40       553     13.68     13.05
09/23 13:00      7.31       519     13.44     13.21
09/23 14:00      7.22       486     13.53     13.21
09/23 15:00      7.14       458     13.44     13.21
09/23 16:00      7.07       434     13.60     13.21
09/23 17:00      6.99       407     13.44     13.13
09/23 18:00      6.92       384     13.21     13.05
09/23 19:00      6.86       365     12.97     12.97
09/23 20:00      6.80       347     12.73     12.65
09/23 21:00      6.75       332     12.65     12.57
09/23 22:00      ----      ----      ----      ----
09/23 23:00      ----      ----      ----      ----